NCAR-RAP Real-Time Weather Data

Output produced by METARs form (23 February 2020  02:30 UTC)
found at http://weather.rap.ucar.edu/surface/
 
KDFW 230153Z 15008KT 10SM SCT220 BKN300 11/02 A3018 RMK AO2 SLP218 T01060022
KDFW 230053Z 16011KT 10SM SCT220 BKN250 11/02 A3018 RMK AO2 SLP219 T01110022
KDFW 222353Z 17012KT 10SM FEW060 SCT250 BKN300 12/03 A3017 RMK AO2 SLP216 T01170028 10139 20111 55012
KDFW 222253Z 16015G22KT 10SM FEW060 FEW250 BKN300 12/03 A3017 RMK AO2 SLP216 T01220033
KDFW 222153Z 16015KT 10SM BKN060 BKN300 13/03 A3020 RMK AO2 SLP225 T01330033
KDFW 222053Z 18015KT 10SM BKN060 BKN300 13/03 A3021 RMK AO2 PRESFR SLP228 T01330033 58044
KDFW 221953Z 19013G20KT 10SM BKN065 BKN230 BKN300 13/03 A3025 RMK AO2 SLP244 T01330028
KDFW 221853Z 18011KT 10SM SCT065 BKN230 BKN300 12/02 A3029 RMK AO2 SLP257 T01220022
KDFW 221753Z 18014KT 10SM FEW060 SCT230 BKN300 12/02 A3034 RMK AO2 SLP272 T01170017 10122 20050 58014
KDFW 221653Z 17009KT 10SM FEW090 SCT230 BKN300 10/01 A3036 RMK AO2 SLP280 T01000011
KDFW 221553Z COR 17012KT 10SM SCT090 BKN300 09/01 A3038 RMK AO2 SLP287 T00940011
KDFW 221453Z 17009KT 10SM FEW060 SCT210 BKN300 07/00 A3038 RMK AO2 SLP287 T00720000 53004
KDFW 221353Z 15008KT 10SM SCT095 BKN210 06/00 A3036 RMK AO2 SLP280 T00610000
KDFW 221253Z 15006KT 10SM BKN095 BKN220 05/M01 A3036 RMK AO2 SLP282 T00501006
KDFW 221153Z 15005KT 10SM BKN100 06/M01 A3037 RMK AO2 SLP284 T00561006 10056 20044 55014
KDFW 221053Z 15006KT 10SM BKN110 BKN130 06/M01 A3036 RMK AO2 SLP281 T00561006
KDFW 220953Z 17005KT 10SM BKN110 BKN130 06/M01 A3039 RMK AO2 SLP292 T00561011
KDFW 220853Z 16004KT 10SM BKN130 BKN190 06/M01 A3041 RMK AO2 SLP298 T00561011 58010
KDFW 220753Z 18006KT 10SM FEW130 BKN190 BKN240 04/M02 A3043 RMK AO2 SLP305 T00441022
KDFW 220653Z 19003KT 10SM SCT140 BKN180 BKN240 06/M02 A3044 RMK AO2 SLP309 T00561022
KDFW 220553Z 16006KT 10SM BKN160 BKN210 06/M02 A3044 RMK AO2 SLP309 T00561022 10078 20044 400941011 58011
KDFW 220453Z 16003KT 10SM SCT210 BKN240 06/M03 A3047 RMK AO2 SLP319 T00561028
KDFW 220353Z 14004KT 10SM BKN210 BKN250 05/M04 A3047 RMK AO2 SLP320 T00501044
KDFW 220253Z 12004KT 10SM FEW220 BKN250 06/M08 A3047 RMK AO2 SLP321 T00611083 56010
KDFW 220153Z 14003KT 10SM SCT250 06/M08 A3048 RMK AO2 SLP324 T00611083
KDFW 220053Z 11004KT 10SM SCT250 06/M09 A3048 RMK AO2 SLP323 T00611094
KDFW 212353Z 11004KT 10SM SCT250 08/M09 A3050 RMK AO2 SLP331 T00781089 10094 20050 56022
KDFW 212253Z 20003KT 10SM SCT250 09/M09 A3051 RMK AO2 SLP331 T00891089
KDFW 212153Z VRB03KT 10SM SCT250 08/M10 A3053 RMK AO2 SLP341 T00831100
KDFW 212053Z 00000KT 10SM SCT250 08/M07 A3057 RMK AO2 SLP353 T00831072 56041
KDFW 211953Z VRB05KT 10SM SCT250 08/M09 A3060 RMK AO2 SLP363 T00781089
KDFW 211853Z VRB04KT 10SM SCT250 06/M08 A3063 RMK AO2 SLP375 T00611083
KDFW 211753Z VRB03KT 10SM FEW005 SCT250 05/M08 A3069 RMK AO2 SLP395 FU FEW005 SW T00501078 10056 21011 58006
KDFW 211653Z 33006KT 10SM FEW010 SCT250 04/M07 A3072 RMK AO2 SLP403 FU FEW010 SW T00441067
KDFW 211553Z 05004KT 10SM FEW250 03/M06 A3072 RMK AO2 SLP403 T00281061
KDFW 211453Z 04009KT 10SM FEW250 01/M06 A3071 RMK AO2 SLP402 T00111056 53011
KDFW 211353Z 02008KT 10SM FEW250 00/M06 A3070 RMK AO2 SLP397 T00001056
KDFW 211253Z 02008KT 10SM FEW300 M01/M05 A3069 RMK AO2 SLP394 T10111050
KDFW 211153Z 03005KT 10SM CLR M01/M05 A3068 RMK AO2 SLP390 T10061050 10028 21006 53006
KDFW 211053Z 01009KT 10SM CLR 00/M04 A3065 RMK AO2 SLP381 T00001039
KDFW 210953Z 01014KT 10SM CLR 01/M04 A3064 RMK AO2 SLP378 T00061039
KDFW 210853Z 02011KT 10SM CLR 01/M04 A3066 RMK AO2 SLP382 T00061039 58002
KDFW 210753Z 02014KT 10SM CLR 02/M03 A3068 RMK AO2 SLP390 T00171033
KDFW 210653Z 01010KT 10SM CLR 02/M03 A3067 RMK AO2 SLP388 T00221028
KDFW 210553Z 02011KT 10SM CLR 03/M02 A3066 RMK AO2 SLP385 T00281022 10067 20028 401220028 51009
KDFW 210453Z 03013G19KT 10SM CLR 03/M02 A3066 RMK AO2 SLP384 T00331017
KDFW 210353Z 02013KT 10SM CLR 04/M02 A3065 RMK AO2 SLP381 T00441017
KDFW 210253Z 02013KT 10SM FEW040 04/M01 A3064 RMK AO2 SLP376 T00441011 51027